Time;durP1;ratioP1;P1;durP2;ratioP2;P2;SDS_P1;SDS_P2;PMS_P1;PMS_P2;Temp;Humidity;BMP_temperature;BMP_pressure;BME280_temperature;BME280_humidity;BME280_pressure;Samples;Min_cycle;Max_cycle;Signal;HPM_P1;HPM_P2
2023/02/11 00:01:32;;;;;;;42.80;25.33;;;;;;;1.40;58.54;98090.28;4949906;28;20191;-68
2023/02/11 00:03:59;;;;;;;46.80;26.93;;;;;;;1.41;58.91;98087.69;4950525;28;20174;-68
2023/02/11 00:06:26;;;;;;;36.77;23.97;;;;;;;1.34;59.27;98087.56;4950422;28;20781;-68
2023/02/11 00:08:52;;;;;;;40.40;25.63;;;;;;;1.26;59.49;98087.41;4949168;28;20542;-68
2023/02/11 00:11:20;;;;;;;42.50;26.60;;;;;;;1.31;59.16;98088.38;4950031;28;20418;-68
2023/02/11 00:13:46;;;;;;;37.13;24.87;;;;;;;1.43;59.14;98087.72;4948654;28;20418;-68
2023/02/11 00:16:15;;;;;;;39.23;25.37;;;;;;;1.38;58.45;98084.19;4949515;28;20437;-68
2023/02/11 00:18:41;;;;;;;47.83;25.70;;;;;;;1.41;58.13;98084.25;4949790;28;20472;-68
2023/02/11 00:21:12;;;;;;;49.77;24.57;;;;;;;1.45;58.19;98076.56;4949450;29;21000;-68
2023/02/11 00:23:38;;;;;;;40.60;24.67;;;;;;;1.47;58.10;98087.81;4949771;28;20201;-68
2023/02/11 00:26:04;;;;;;;37.67;24.93;;;;;;;1.41;57.85;98089.41;4949908;28;20413;-68
2023/02/11 00:28:29;;;;;;;42.60;25.70;;;;;;;1.46;57.35;98101.63;4949771;28;20190;-69
2023/02/11 00:30:57;;;;;;;38.90;24.57;;;;;;;1.46;56.55;98100.72;4949511;28;20813;-68
2023/02/11 00:33:23;;;;;;;41.57;23.90;;;;;;;1.48;57.38;98096.44;4949596;28;20232;-68
2023/02/11 00:35:49;;;;;;;31.10;22.83;;;;;;;1.42;57.11;98092.03;4949406;28;20418;-69
2023/02/11 00:38:14;;;;;;;36.73;23.13;;;;;;;1.35;56.75;98090.19;4949414;28;20480;-68
2023/02/11 00:40:40;;;;;;;38.87;23.70;;;;;;;1.45;56.57;98084.34;4949522;28;20265;-69
2023/02/11 00:43:06;;;;;;;33.17;21.97;;;;;;;1.47;56.25;98086.97;4949950;28;20596;-69
2023/02/11 00:45:31;;;;;;;34.80;22.60;;;;;;;1.47;56.09;98087.81;4949909;28;20533;-69
2023/02/11 00:47:57;;;;;;;43.70;24.07;;;;;;;1.29;55.88;98095.22;4949526;28;20256;-69
2023/02/11 00:50:23;;;;;;;36.67;22.97;;;;;;;1.23;56.70;98092.53;4949884;28;20182;-68
2023/02/11 00:52:48;;;;;;;35.30;22.57;;;;;;;1.20;56.99;98095.03;4949554;28;20178;-68
2023/02/11 00:55:14;;;;;;;55.00;22.80;;;;;;;1.26;56.07;98097.75;4949867;28;20418;-70
2023/02/11 00:57:40;;;;;;;40.57;22.90;;;;;;;1.24;56.67;98100.31;4949843;28;20198;-69
2023/02/11 01:00:06;;;;;;;34.87;21.30;;;;;;;1.24;56.56;98099.44;4949925;28;21103;-69
2023/02/11 01:02:32;;;;;;;35.03;21.07;;;;;;;1.30;55.81;98099.56;4949991;28;20718;-69
2023/02/11 01:04:58;;;;;;;39.63;20.80;;;;;;;1.17;55.55;98102.75;4950053;28;20481;-68
2023/02/11 01:07:25;;;;;;;31.47;21.10;;;;;;;1.10;56.42;98103.44;4948823;28;20198;-69
2023/02/11 01:09:50;;;;;;;38.20;24.17;;;;;;;1.07;57.14;98105.97;4948716;28;20418;-69
2023/02/11 01:12:16;;;;;;;40.60;24.03;;;;;;;1.17;56.53;98107.91;4949319;28;20418;-69
2023/02/11 01:14:42;;;;;;;36.43;20.77;;;;;;;1.21;55.76;98107.13;4949130;28;20533;-67
2023/02/11 01:17:07;;;;;;;27.40;19.80;;;;;;;1.12;56.35;98104.34;4948620;28;20189;-70
2023/02/11 01:19:32;;;;;;;36.63;22.20;;;;;;;1.10;56.47;98113.78;4949140;28;20202;-68
2023/02/11 01:21:58;;;;;;;33.73;21.23;;;;;;;0.95;56.66;98112.63;4949038;28;20515;-69
2023/02/11 01:24:24;;;;;;;31.80;21.93;;;;;;;0.98;56.13;98104.06;4948819;28;20209;-69
2023/02/11 01:26:49;;;;;;;34.10;22.53;;;;;;;1.09;56.58;98097.41;4948801;28;20209;-69
2023/02/11 01:29:14;;;;;;;36.00;22.30;;;;;;;1.05;55.97;98090.44;4948901;28;20201;-69
2023/02/11 01:31:40;;;;;;;31.20;21.10;;;;;;;0.84;56.88;98088.25;4948882;28;20244;-69
2023/02/11 01:34:05;;;;;;;29.43;21.10;;;;;;;0.77;56.98;98082.09;4949003;28;20684;-69
2023/02/11 01:36:31;;;;;;;40.80;21.07;;;;;;;0.84;57.05;98076.19;4948583;28;20175;-69
2023/02/11 01:38:57;;;;;;;34.17;21.83;;;;;;;0.82;57.18;98077.00;4948585;28;20970;-70
2023/02/11 01:41:22;;;;;;;34.67;20.70;;;;;;;0.81;56.83;98068.41;4948695;28;20521;-69
2023/02/11 01:43:49;;;;;;;35.53;21.10;;;;;;;0.75;57.02;98077.72;4948679;28;20178;-69
2023/02/11 01:46:30;;;;;;;32.80;20.33;;;;;;;0.81;56.78;98065.81;4948460;28;20181;-69
2023/02/11 01:49:19;;;;;;;37.17;21.43;;;;;;;0.83;57.46;98058.97;4948602;28;20441;-69
2023/02/11 01:51:57;;;;;;;36.10;22.40;;;;;;;0.80;57.28;98052.84;4948755;28;20414;-70
2023/02/11 01:57:26;;;;;;;39.23;23.57;;;;;;;0.74;57.98;98057.91;4948754;29;20409;-68
2023/02/11 02:00:06;;;;;;;41.87;23.60;;;;;;;0.80;58.10;98053.75;4948615;28;20433;-68
2023/02/11 02:02:44;;;;;;;36.77;23.37;;;;;;;0.96;57.46;98046.28;4948705;28;20536;-69
2023/02/11 02:05:28;;;;;;;32.60;22.37;;;;;;;0.95;58.09;98041.97;4948647;28;20422;-69
2023/02/11 02:08:04;;;;;;;35.00;22.70;;;;;;;0.84;58.86;98037.44;4948439;28;20434;-68
2023/02/11 02:10:30;;;;;;;37.53;23.60;;;;;;;0.82;58.76;98023.59;4948995;28;20512;-69
2023/02/11 02:12:56;;;;;;;35.77;23.83;;;;;;;0.63;59.10;98014.59;4948633;28;20433;-69
2023/02/11 02:15:25;;;;;;;36.90;23.30;;;;;;;0.69;59.20;98015.59;4948685;28;20421;-69
2023/02/11 02:17:59;;;;;;;29.63;21.90;;;;;;;0.65;59.24;98013.78;4945184;28;20528;-69
2023/02/11 02:20:30;;;;;;;35.97;21.80;;;;;;;0.71;59.17;98016.47;4950003;28;20414;-69
2023/02/11 02:23:11;;;;;;;34.70;22.93;;;;;;;0.65;60.57;98014.66;4952211;28;20835;-68
2023/02/11 02:25:58;;;;;;;41.13;25.17;;;;;;;0.68;60.26;98006.09;4952033;28;20449;-68
2023/02/11 02:29:09;;;;;;;36.73;24.33;;;;;;;0.67;59.95;98002.63;4951685;28;20430;-68
2023/02/11 02:31:56;;;;;;;36.23;22.20;;;;;;;0.29;61.15;98004.41;4952241;29;20508;-68
2023/02/11 02:34:21;;;;;;;43.83;25.17;;;;;;;0.52;60.87;97990.28;4952006;28;20504;-69
2023/02/11 02:36:53;;;;;;;44.07;24.50;;;;;;;0.50;59.89;97997.13;4951483;28;20529;-68
2023/02/11 02:39:30;;;;;;;37.53;23.37;;;;;;;0.38;60.62;97999.44;4951548;28;20285;-69
2023/02/11 02:41:56;;;;;;;34.50;23.20;;;;;;;0.37;60.98;98005.44;4951760;28;20418;-69
2023/02/11 02:44:22;;;;;;;41.60;25.40;;;;;;;0.46;60.97;97994.44;4951668;28;20422;-69
2023/02/11 02:46:48;;;;;;;44.97;23.90;;;;;;;0.50;60.94;98001.41;4951314;28;20884;-68
2023/02/11 02:49:15;;;;;;;38.57;23.67;;;;;;;0.38;60.87;97996.88;4951426;28;20448;-67
2023/02/11 02:51:49;;;;;;;36.83;23.93;;;;;;;0.48;60.91;98008.25;4951460;28;20593;-68
2023/02/11 02:54:23;;;;;;;38.67;23.13;;;;;;;0.55;60.86;98000.66;4966273;28;20461;-68
2023/02/11 02:57:07;;;;;;;33.07;22.30;;;;;;;0.56;60.46;98002.41;4951195;28;20497;-68
2023/02/11 02:59:51;;;;;;;41.80;24.40;;;;;;;0.55;60.17;98002.38;4951340;28;20461;-68
2023/02/11 03:02:28;;;;;;;42.50;23.00;;;;;;;0.58;60.16;97995.56;4951328;28;20409;-69
2023/02/11 03:05:02;;;;;;;36.93;23.33;;;;;;;0.60;58.90;97990.44;4951204;28;20844;-68
2023/02/11 03:07:43;;;;;;;40.33;23.50;;;;;;;0.55;59.41;97997.22;4950797;28;20440;-69
2023/02/11 03:10:14;;;;;;;30.40;20.70;;;;;;;0.67;59.17;97992.31;4951165;28;20560;-68
2023/02/11 03:12:42;;;;;;;36.37;22.97;;;;;;;0.78;58.68;97990.81;4951088;28;20481;-68
2023/02/11 03:15:11;;;;;;;34.43;22.30;;;;;;;0.72;58.30;98000.16;4951195;28;20904;-69
2023/02/11 03:17:39;;;;;;;40.40;22.80;;;;;;;0.70;57.40;98001.81;4950826;28;20457;-68
2023/02/11 03:20:09;;;;;;;36.73;21.50;;;;;;;0.59;58.25;98009.34;4951190;28;20956;-68
2023/02/11 03:22:41;;;;;;;30.93;21.17;;;;;;;0.50;57.84;98004.00;4950974;28;20473;-69
2023/02/11 03:25:08;;;;;;;29.53;21.63;;;;;;;0.47;58.01;97998.75;4951011;28;20936;-68
2023/02/11 03:28:01;;;;;;;39.03;21.37;;;;;;;0.51;57.20;97996.25;4950766;28;20438;-68
2023/02/11 03:30:37;;;;;;;31.33;21.50;;;;;;;0.33;57.60;97990.69;4952046;28;20429;-68
2023/02/11 03:33:15;;;;;;;35.37;20.67;;;;;;;0.21;57.87;97996.47;4951969;28;20417;-69
2023/02/11 03:35:49;;;;;;;50.10;20.77;;;;;;;0.31;57.72;97994.97;4952290;28;20444;-69
2023/02/11 03:38:26;;;;;;;32.93;20.20;;;;;;;0.44;57.33;97986.66;4951701;28;20469;-70
2023/02/11 03:40:54;;;;;;;42.77;23.53;;;;;;;0.50;57.36;97973.88;4952272;28;20497;-69
2023/02/11 03:43:25;;;;;;;40.20;22.33;;;;;;;0.43;57.18;97982.34;4956280;28;20481;-69
2023/02/11 03:45:53;;;;;;;29.60;20.27;;;;;;;0.32;58.47;97979.50;4961924;28;20483;-69
2023/02/11 03:48:24;;;;;;;33.20;20.53;;;;;;;0.27;58.58;97980.25;4953748;28;20578;-69
2023/02/11 03:50:53;;;;;;;37.63;21.33;;;;;;;0.46;58.56;97971.19;4950535;28;20418;-69
2023/02/11 03:53:20;;;;;;;37.60;21.30;;;;;;;0.45;58.99;97990.09;4950379;28;20426;-69
2023/02/11 03:55:48;;;;;;;36.43;22.70;;;;;;;0.54;59.48;97990.28;4950597;28;20451;-70
2023/02/11 03:58:13;;;;;;;38.90;22.27;;;;;;;0.29;59.83;97994.94;4950190;28;20555;-68
2023/02/11 04:00:42;;;;;;;34.80;21.80;;;;;;;0.38;59.54;97989.97;4950244;28;20509;-68
2023/02/11 04:03:08;;;;;;;34.87;21.50;;;;;;;0.38;59.68;97973.63;4950106;28;20587;-69
2023/02/11 04:05:34;;;;;;;33.07;20.80;;;;;;;0.42;59.43;97970.25;4950616;28;20422;-69
2023/02/11 04:07:59;;;;;;;35.43;23.37;;;;;;;0.43;59.15;97972.00;4950761;28;20472;-69
2023/02/11 04:10:25;;;;;;;38.50;23.37;;;;;;;0.41;59.86;97979.72;4950867;28;20348;-68
2023/02/11 04:12:50;;;;;;;37.80;23.83;;;;;;;0.45;59.52;97998.75;4950516;28;20178;-68
2023/02/11 04:15:16;;;;;;;34.53;22.10;;;;;;;0.41;60.03;97994.34;4950190;28;20683;-68
2023/02/11 04:17:41;;;;;;;39.00;22.27;;;;;;;0.54;58.96;98000.63;4949752;28;20206;-68
2023/02/11 04:20:07;;;;;;;30.90;22.13;;;;;;;0.55;59.46;98003.25;4949825;28;20186;-68
2023/02/11 04:22:33;;;;;;;31.50;21.27;;;;;;;0.62;59.17;98007.72;4950140;28;20580;-69
2023/02/11 04:24:58;;;;;;;47.80;23.47;;;;;;;0.62;59.73;98020.63;4949876;28;20502;-68
2023/02/11 04:27:23;;;;;;;34.20;21.63;;;;;;;0.67;59.37;98027.59;4949899;28;20171;-68
2023/02/11 04:29:49;;;;;;;30.10;20.40;;;;;;;0.76;57.99;98020.06;4950004;28;20667;-68
2023/02/11 04:32:14;;;;;;;37.70;21.27;;;;;;;0.77;58.28;98009.72;4949967;28;20281;-68
2023/02/11 04:34:40;;;;;;;34.90;21.93;;;;;;;0.85;58.15;98012.47;4949909;28;20204;-68
2023/02/11 04:37:06;;;;;;;42.50;23.43;;;;;;;0.81;57.57;98021.88;4949627;28;20693;-68
2023/02/11 04:39:31;;;;;;;28.23;19.47;;;;;;;0.84;57.35;98021.94;4949710;28;20682;-68
2023/02/11 04:41:56;;;;;;;30.93;19.73;;;;;;;0.78;57.19;98026.09;4949812;28;20557;-69
2023/02/11 04:44:22;;;;;;;28.10;18.17;;;;;;;0.79;56.83;98013.22;4948953;28;20205;-68
2023/02/11 04:46:47;;;;;;;26.47;19.13;;;;;;;0.76;56.48;98020.06;4949575;28;20181;-68
2023/02/11 04:49:14;;;;;;;32.30;19.97;;;;;;;0.78;57.30;98026.09;4949461;28;20198;-69
2023/02/11 04:51:40;;;;;;;28.33;17.93;;;;;;;0.73;56.95;98018.28;4949516;28;20970;-68
2023/02/11 04:54:06;;;;;;;34.47;21.13;;;;;;;0.77;56.30;98019.19;4949316;28;20481;-68
2023/02/11 04:56:31;;;;;;;35.87;20.37;;;;;;;0.84;56.92;98021.06;4949161;28;20174;-68
2023/02/11 04:58:56;;;;;;;31.13;22.50;;;;;;;0.73;56.73;98014.78;4949131;28;20296;-68
2023/02/11 05:01:22;;;;;;;34.03;18.43;;;;;;;0.57;56.98;98016.22;4949421;28;20599;-68
2023/02/11 05:03:48;;;;;;;33.23;20.43;;;;;;;0.59;56.90;98023.16;4949351;28;20201;-68
2023/02/11 05:06:13;;;;;;;32.67;18.93;;;;;;;0.55;57.75;98013.59;4949014;28;20170;-68
2023/02/11 05:08:39;;;;;;;37.87;21.10;;;;;;;0.53;57.26;98020.41;4949069;28;20686;-69
2023/02/11 05:11:04;;;;;;;34.43;20.63;;;;;;;0.53;58.20;98020.41;4949516;28;20174;-68
2023/02/11 05:13:30;;;;;;;33.37;20.53;;;;;;;0.64;58.38;98018.09;4949194;28;20183;-67
2023/02/11 05:15:56;;;;;;;32.67;19.20;;;;;;;0.71;58.07;98021.63;4949333;28;20186;-68
2023/02/11 05:18:22;;;;;;;37.83;20.30;;;;;;;0.72;58.29;98015.66;4949453;28;20958;-68
2023/02/11 05:20:47;;;;;;;29.40;20.13;;;;;;;0.71;58.59;98029.41;4949715;28;20190;-68
2023/02/11 05:23:13;;;;;;;35.13;20.77;;;;;;;0.93;58.24;98010.06;4949387;28;20418;-68
2023/02/11 05:25:38;;;;;;;59.60;22.20;;;;;;;0.81;58.34;98002.94;4949129;28;20184;-69
2023/02/11 05:28:04;;;;;;;32.27;21.60;;;;;;;0.78;59.05;97995.09;4948843;28;20194;-68
2023/02/11 05:30:30;;;;;;;40.33;22.23;;;;;;;0.72;59.49;97998.44;4949017;28;20185;-68
2023/02/11 05:32:56;;;;;;;41.80;21.07;;;;;;;0.71;59.25;97993.22;4949379;28;20182;-68
2023/02/11 05:35:22;;;;;;;35.10;23.97;;;;;;;0.69;59.44;97992.34;4949103;28;20422;-68
2023/02/11 05:37:47;;;;;;;39.67;22.60;;;;;;;0.55;60.76;97994.63;4948607;28;20206;-69
2023/02/11 05:40:13;;;;;;;38.03;23.20;;;;;;;0.63;60.26;97991.34;4949202;28;20170;-68
2023/02/11 05:42:38;;;;;;;39.93;25.47;;;;;;;0.82;60.18;97987.44;4948961;28;20534;-69
2023/02/11 05:45:04;;;;;;;37.37;21.90;;;;;;;0.75;60.67;97997.63;4948752;28;20240;-68
2023/02/11 05:47:30;;;;;;;39.90;23.37;;;;;;;0.79;60.18;97984.78;4948459;28;20206;-69
2023/02/11 05:49:56;;;;;;;36.40;23.63;;;;;;;0.74;60.25;97976.09;4949208;28;20422;-68
2023/02/11 05:52:22;;;;;;;32.20;21.30;;;;;;;0.73;59.95;97973.47;4949051;28;20527;-68
2023/02/11 05:54:47;;;;;;;31.77;23.37;;;;;;;0.70;60.92;97965.66;4950397;28;20178;-68
2023/02/11 05:57:15;;;;;;;36.10;22.60;;;;;;;0.60;60.46;97967.19;4952466;28;20422;-68
2023/02/11 05:59:41;;;;;;;37.77;24.00;;;;;;;0.60;61.28;97957.72;4952397;28;20220;-68
2023/02/11 06:02:07;;;;;;;35.80;23.07;;;;;;;0.59;61.22;97943.06;4952453;28;21244;-68
2023/02/11 06:04:33;;;;;;;39.83;22.77;;;;;;;0.65;61.20;97938.88;4952545;28;20183;-69
2023/02/11 06:06:58;;;;;;;35.70;23.37;;;;;;;0.62;60.79;97953.47;4952241;28;20508;-69
2023/02/11 06:09:24;;;;;;;40.13;24.20;;;;;;;0.55;62.22;97963.63;4952345;28;20426;-69
2023/02/11 06:11:50;;;;;;;35.00;21.60;;;;;;;0.49;62.07;97982.44;4952305;28;20174;-68
2023/02/11 06:14:15;;;;;;;44.07;23.17;;;;;;;0.54;61.59;97995.47;4952254;28;20896;-68
2023/02/11 06:16:41;;;;;;;39.33;23.17;;;;;;;0.77;61.00;97985.59;4951919;28;20264;-69
2023/02/11 06:19:06;;;;;;;32.17;22.77;;;;;;;0.81;60.98;97969.34;4952013;28;20717;-69
2023/02/11 06:21:32;;;;;;;38.30;21.33;;;;;;;0.66;61.39;97971.59;4951969;28;20241;-69
2023/02/11 06:23:57;;;;;;;55.93;23.00;;;;;;;0.73;60.42;97960.53;4951873;28;20193;-68
2023/02/11 06:26:23;;;;;;;36.77;21.70;;;;;;;0.73;60.88;97956.28;4951890;28;20174;-68
2023/02/11 06:28:48;;;;;;;44.57;23.03;;;;;;;0.66;60.77;97961.25;4951614;28;20205;-68
2023/02/11 06:31:14;;;;;;;42.10;25.20;;;;;;;0.79;61.14;97964.13;4951682;28;20178;-68
2023/02/11 06:33:40;;;;;;;36.43;23.83;;;;;;;0.83;60.75;97972.81;4951675;28;20238;-69
2023/02/11 06:36:18;;;;;;;31.37;21.80;;;;;;;0.75;60.92;97964.88;4951461;28;20492;-70
2023/02/11 06:38:44;;;;;;;33.07;22.83;;;;;;;0.76;60.91;97970.97;4950076;28;20702;-70
2023/02/11 06:41:11;;;;;;;56.80;26.60;;;;;;;0.87;60.51;97968.56;4947498;28;20429;-70
2023/02/11 06:43:36;;;;;;;32.50;24.00;;;;;;;0.90;60.79;97978.94;4948664;28;20440;-69
2023/02/11 06:46:02;;;;;;;43.03;23.80;;;;;;;0.96;60.10;97985.13;4936380;28;21039;-69
2023/02/11 06:48:27;;;;;;;40.23;24.13;;;;;;;0.90;61.46;97991.88;4946118;29;20205;-69
2023/02/11 06:50:53;;;;;;;44.77;21.93;;;;;;;0.94;60.83;97997.13;4950015;28;20174;-69
2023/02/11 06:53:18;;;;;;;43.87;25.63;;;;;;;1.04;60.21;97993.91;4952843;28;20201;-69
2023/02/11 06:55:44;;;;;;;37.07;23.33;;;;;;;0.98;60.87;97991.19;4952501;28;20175;-67
2023/02/11 06:58:09;;;;;;;79.70;28.80;;;;;;;0.94;60.98;97988.53;4952641;28;20202;-71
2023/02/11 07:00:36;;;;;;;57.33;25.63;;;;;;;1.10;60.65;97995.72;4948312;28;20186;-71
2023/02/11 07:03:01;;;;;;;64.97;27.30;;;;;;;1.11;59.56;98001.75;4952840;28;20273;-69
2023/02/11 07:05:27;;;;;;;48.63;23.83;;;;;;;1.00;60.34;98004.16;4951862;28;20438;-70
2023/02/11 07:07:52;;;;;;;49.60;23.20;;;;;;;1.02;60.37;98005.06;4952401;28;20246;-70
2023/02/11 07:10:17;;;;;;;45.33;22.23;;;;;;;1.06;59.14;97996.50;4954670;28;20214;-69
2023/02/11 07:12:43;;;;;;;36.60;22.40;;;;;;;1.09;59.46;97998.28;4948935;28;20205;-69
2023/02/11 07:15:08;;;;;;;36.70;22.03;;;;;;;1.18;58.73;98001.03;4948069;28;20193;-70
2023/02/11 07:17:34;;;;;;;46.73;21.60;;;;;;;1.27;58.89;97990.88;4948648;28;20302;-69
2023/02/11 07:20:00;;;;;;;36.67;21.20;;;;;;;1.24;58.64;97988.25;4954415;28;20178;-69
2023/02/11 07:22:25;;;;;;;38.50;22.00;;;;;;;1.18;59.19;97993.28;4949413;28;20458;-67
2023/02/11 07:24:51;;;;;;;33.33;21.50;;;;;;;1.30;58.66;97996.13;4950021;28;20254;-69
2023/02/11 07:27:16;;;;;;;33.50;21.13;;;;;;;1.13;58.70;97998.38;4947685;28;20686;-70
2023/02/11 07:29:41;;;;;;;30.33;21.03;;;;;;;1.24;59.29;97996.84;4948360;28;20770;-70
2023/02/11 07:32:07;;;;;;;42.83;21.37;;;;;;;1.26;59.47;97995.19;4948141;28;20214;-70
2023/02/11 07:34:33;;;;;;;32.27;22.00;;;;;;;1.31;58.90;97986.63;4948394;28;20205;-69
2023/02/11 07:36:58;;;;;;;36.03;23.43;;;;;;;1.46;58.78;97977.44;4947863;28;20174;-70
2023/02/11 07:39:26;;;;;;;34.13;24.20;;;;;;;1.52;58.82;97971.50;4947507;28;20202;-69
2023/02/11 07:41:52;;;;;;;34.67;23.10;;;;;;;1.76;58.16;97985.69;4944491;28;20723;-69
2023/02/11 07:44:18;;;;;;;34.87;24.00;;;;;;;3.05;55.66;97970.19;4943924;28;21018;-69
2023/02/11 07:46:44;;;;;;;26.83;20.53;;;;;;;4.65;68.00;97955.81;4944640;28;20517;-68
2023/02/11 07:49:10;;;;;;;48.33;22.70;;;;;;;4.14;52.11;97955.56;4945419;28;20216;-69
2023/02/11 07:51:36;;;;;;;51.13;25.70;;;;;;;5.03;53.01;97965.50;4946927;28;20448;-68
2023/02/11 07:54:01;;;;;;;34.00;22.10;;;;;;;5.04;48.48;97949.03;4959044;28;20809;-69
2023/02/11 07:56:27;;;;;;;194.53;39.33;;;;;;;4.71;49.47;97963.66;4947001;28;20448;-69
2023/02/11 07:58:53;;;;;;;108.70;29.70;;;;;;;4.26;49.84;97949.56;4945314;28;20213;-69
2023/02/11 08:01:25;;;;;;;33.77;23.30;;;;;;;4.05;50.26;97952.03;4947400;28;20421;-70
2023/02/11 08:03:51;;;;;;;32.13;20.97;;;;;;;4.69;49.29;97949.78;4947018;28;20410;-69
2023/02/11 08:06:19;;;;;;;36.07;23.73;;;;;;;6.02;46.23;97953.50;4944168;28;20448;-69
2023/02/11 08:08:46;;;;;;;29.50;21.43;;;;;;;7.85;41.52;97945.72;4944369;28;20552;-69
2023/02/11 08:11:15;;;;;;;27.17;20.77;;;;;;;9.14;38.67;97951.34;4944135;28;20513;-67
2023/02/11 08:13:41;;;;;;;32.77;23.33;;;;;;;8.24;40.03;97954.97;4945564;28;20441;-70
2023/02/11 08:16:07;;;;;;;24.63;21.10;;;;;;;7.14;41.83;97974.91;4943957;28;20521;-70
2023/02/11 08:18:34;;;;;;;33.30;23.33;;;;;;;6.46;43.82;97976.91;4944108;28;20469;-71
2023/02/11 08:21:07;;;;;;;32.90;22.53;;;;;;;5.73;45.79;97990.81;4945972;28;20444;-70
2023/02/11 08:23:34;;;;;;;32.90;24.13;;;;;;;5.65;45.87;97985.63;4944882;28;20476;-70
2023/02/11 08:26:04;;;;;;;35.67;25.33;;;;;;;5.47;46.36;97996.00;4942152;29;20438;-70
2023/02/11 08:28:30;;;;;;;33.30;24.20;;;;;;;5.58;46.27;97981.25;4943698;29;20445;-69
2023/02/11 08:30:55;;;;;;;29.93;22.97;;;;;;;5.79;46.15;97979.53;4945290;28;20493;-69
2023/02/11 08:33:21;;;;;;;30.03;22.93;;;;;;;5.93;45.48;97975.22;4941896;28;20178;-69
2023/02/11 08:35:46;;;;;;;34.30;24.40;;;;;;;5.84;45.52;97964.78;4945334;28;20761;-71
2023/02/11 08:38:12;;;;;;;32.80;22.10;;;;;;;5.38;46.79;97970.81;4945103;28;20860;-70
2023/02/11 08:40:37;;;;;;;32.33;22.77;;;;;;;4.90;48.20;97974.16;4945254;28;20655;-71
2023/02/11 08:43:03;;;;;;;33.30;24.90;;;;;;;6.08;46.44;97976.97;4943733;28;20265;-70
2023/02/11 08:45:28;;;;;;;34.33;22.63;;;;;;;8.62;40.10;97979.00;4945516;28;20203;-70
2023/02/11 08:47:54;;;;;;;36.13;25.20;;;;;;;9.80;36.94;97974.84;4947369;28;20190;-69
2023/02/11 08:50:19;;;;;;;35.90;23.43;;;;;;;10.80;35.02;97968.75;4945968;29;20178;-70
2023/02/11 08:52:44;;;;;;;34.10;25.30;;;;;;;11.93;34.31;97966.31;4945086;28;20476;-69
2023/02/11 08:55:10;;;;;;;34.53;26.55;;;;;;;11.53;33.80;97959.34;4944273;28;20525;-70
2023/02/11 08:57:36;;;;;;;30.70;24.30;;;;;;;9.46;37.28;97977.09;4945291;28;20692;-69
2023/02/11 09:00:02;;;;;;;37.43;25.37;;;;;;;8.64;39.68;97987.72;4943538;29;20178;-70
2023/02/11 09:02:28;;;;;;;35.67;24.73;;;;;;;7.40;41.91;97997.41;4944254;28;20194;-71
2023/02/11 09:04:54;;;;;;;35.93;24.60;;;;;;;6.96;43.29;97996.75;4946781;28;20823;-70
2023/02/11 09:07:19;;;;;;;26.70;22.37;;;;;;;6.40;44.80;97995.16;4945844;28;20445;-70
2023/02/11 09:09:44;;;;;;;37.43;24.90;;;;;;;5.83;46.24;97984.75;4946685;28;20276;-68
2023/02/11 09:12:10;;;;;;;41.67;23.97;;;;;;;5.70;47.15;98002.09;4944638;28;20190;-67
2023/02/11 09:14:36;;;;;;;61.30;26.27;;;;;;;5.70;46.94;97964.78;4946727;29;20615;-70
2023/02/11 09:17:01;;;;;;;43.07;25.40;;;;;;;5.09;49.03;97984.63;4945643;28;20204;-71
2023/02/11 09:19:27;;;;;;;49.70;26.07;;;;;;;5.23;49.09;97992.47;4947214;28;20218;-72
2023/02/11 09:21:52;;;;;;;52.30;25.60;;;;;;;5.33;48.48;97969.94;4946890;28;20272;-71
2023/02/11 09:24:18;;;;;;;36.10;23.27;;;;;;;5.13;48.96;97967.28;4946207;28;21164;-70
2023/02/11 09:26:43;;;;;;;35.17;22.60;;;;;;;5.54;48.28;97966.50;4947685;28;20261;-70
2023/02/11 09:29:09;;;;;;;36.97;25.27;;;;;;;6.93;45.20;97947.19;4949023;28;20706;-73
2023/02/11 09:31:34;;;;;;;42.13;26.07;;;;;;;7.84;43.01;97952.72;4952827;28;20189;-73
2023/02/11 09:34:04;;;;;;;35.83;24.40;;;;;;;7.98;42.26;97962.16;4952891;28;21017;-72
2023/02/11 09:36:36;;;;;;;38.57;25.90;;;;;;;7.34;43.93;97955.66;4952712;28;20178;-71
2023/02/11 09:39:03;;;;;;;33.87;25.40;;;;;;;7.43;43.70;97937.31;4949053;28;20524;-70
2023/02/11 09:41:36;;;;;;;31.77;22.90;;;;;;;7.47;44.16;97948.63;4936413;28;20423;-72
2023/02/11 09:44:05;;;;;;;31.47;23.83;;;;;;;7.59;43.86;97948.53;4952294;28;20922;-69
2023/02/11 09:46:42;;;;;;;32.40;24.03;;;;;;;8.03;42.89;97952.53;4952463;28;20796;-69
2023/02/11 09:49:19;;;;;;;32.03;22.80;;;;;;;8.12;42.89;97957.69;4950913;28;20633;-68
2023/02/11 09:51:50;;;;;;;34.33;24.97;;;;;;;8.84;41.34;97950.88;4948627;28;20520;-70
2023/02/11 09:54:25;;;;;;;36.40;26.70;;;;;;;9.33;40.54;97952.84;4946674;29;20469;-71
2023/02/11 09:56:51;;;;;;;28.80;22.80;;;;;;;9.58;39.71;97942.84;4947110;28;20451;-69
2023/02/11 09:59:17;;;;;;;27.10;20.83;;;;;;;9.66;39.05;97942.72;4948839;28;20469;-69
2023/02/11 10:02:01;;;;;;;34.27;22.97;;;;;;;9.74;39.46;97946.13;4943596;29;20182;-70
2023/02/11 10:05:03;;;;;;;31.63;24.53;;;;;;;9.56;39.10;97944.63;4950669;28;20441;-69
2023/02/11 10:07:47;;;;;;;30.50;23.90;;;;;;;9.27;40.13;97935.44;4948138;29;20464;-67
2023/02/11 10:10:21;;;;;;;32.57;22.87;;;;;;;9.11;41.13;97939.16;4951261;28;20592;-71
2023/02/11 10:13:10;;;;;;;30.37;22.77;;;;;;;8.91;41.44;97928.97;4949691;28;20893;-68
2023/02/11 10:15:46;;;;;;;28.73;23.40;;;;;;;8.80;41.87;97936.06;4951806;28;20457;-69
2023/02/11 10:18:23;;;;;;;47.93;27.33;;;;;;;8.57;41.55;97931.09;4954251;28;20473;-69
2023/02/11 10:21:16;;;;;;;34.00;24.17;;;;;;;8.10;43.09;97928.06;4954623;28;20842;-70
2023/02/11 10:23:47;;;;;;;29.27;22.90;;;;;;;7.69;44.11;97931.91;4957032;29;20869;-68
2023/02/11 10:26:16;;;;;;;50.37;25.47;;;;;;;7.67;44.18;97930.19;4950648;28;20441;-69
2023/02/11 10:28:45;;;;;;;47.80;26.43;;;;;;;7.84;44.61;97938.75;4950181;29;20457;-69
2023/02/11 10:31:25;;;;;;;34.80;24.53;;;;;;;8.08;43.93;97935.06;4950222;28;20445;-68
2023/02/11 10:33:57;;;;;;;36.27;23.10;;;;;;;8.55;42.94;97936.38;4949931;28;20485;-67
2023/02/11 10:36:31;;;;;;;40.33;24.47;;;;;;;9.20;41.84;97933.81;4949787;28;20438;-69
2023/02/11 10:39:17;;;;;;;34.00;24.77;;;;;;;9.00;41.42;97928.84;4962400;28;20931;-69
2023/02/11 10:41:49;;;;;;;34.97;26.73;;;;;;;8.61;42.24;97932.81;4949955;28;20441;-70
2023/02/11 10:44:29;;;;;;;34.67;23.10;;;;;;;8.33;43.87;97924.34;4949471;28;20904;-67
2023/02/11 10:46:57;;;;;;;31.63;22.43;;;;;;;8.20;43.53;97910.56;4949518;29;20524;-69
2023/02/11 10:49:43;;;;;;;27.93;20.93;;;;;;;8.28;43.00;97906.09;4949828;28;20466;-68
2023/02/11 10:52:17;;;;;;;29.17;18.90;;;;;;;8.59;43.29;97913.63;4946273;28;20873;-68
2023/02/11 10:55:13;;;;;;;29.90;20.73;;;;;;;8.75;42.21;97902.09;4949122;29;20916;-69
2023/02/11 10:57:59;;;;;;;28.47;20.47;;;;;;;9.00;41.39;97902.66;4948081;28;22143;-69
2023/02/11 11:00:42;;;;;;;32.37;20.17;;;;;;;9.30;41.73;97896.09;4949643;29;20432;-70
2023/02/11 11:03:23;;;;;;;28.10;19.80;;;;;;;9.46;41.65;97893.25;4960322;28;20509;-69
2023/02/11 11:05:55;;;;;;;28.00;19.43;;;;;;;9.83;40.75;97888.28;4943859;29;20515;-67
2023/02/11 11:08:21;;;;;;;32.27;21.77;;;;;;;9.80;40.44;97871.72;4946593;28;20644;-68
2023/02/11 11:11:08;;;;;;;30.20;19.50;;;;;;;9.94;40.57;97882.84;4949483;28;20851;-70
2023/02/11 11:13:52;;;;;;;24.27;18.03;;;;;;;9.74;40.75;97883.19;4949493;28;20197;-68
2023/02/11 11:16:22;;;;;;;33.63;21.57;;;;;;;10.03;40.14;97882.69;4945882;29;20979;-68
2023/02/11 11:18:53;;;;;;;29.70;19.97;;;;;;;10.25;39.59;97877.94;4944564;28;20591;-68
2023/02/11 11:21:20;;;;;;;27.60;19.90;;;;;;;10.44;39.08;97872.34;4948782;29;20437;-69
2023/02/11 11:23:50;;;;;;;46.83;21.60;;;;;;;10.58;39.08;97880.78;4949512;28;20515;-68
2023/02/11 11:26:16;;;;;;;32.77;20.37;;;;;;;10.72;38.53;97870.88;4948118;28;20460;-67
2023/02/11 11:28:50;;;;;;;24.30;17.27;;;;;;;10.42;38.83;97882.00;4949071;28;20513;-69
2023/02/11 11:31:35;;;;;;;33.13;18.30;;;;;;;10.59;38.36;97872.91;4944167;28;20513;-68
2023/02/11 11:34:32;;;;;;;70.67;23.17;;;;;;;10.73;38.52;97872.63;4947853;28;20998;-68
2023/02/11 11:37:00;;;;;;;24.70;17.30;;;;;;;11.00;37.77;97863.25;4948593;29;20440;-69